createdAt,value
2022-12-31T00:01:20.142Z,98103.47
2022-12-31T00:06:26.466Z,98096.44
2022-12-31T00:08:55.321Z,98094.50
2022-12-31T00:11:23.071Z,98092.53
2022-12-31T00:13:50.496Z,98110.91
2022-12-31T00:16:20.623Z,98105.84
2022-12-31T00:18:49.875Z,98105.06
2022-12-31T00:21:18.034Z,98108.19
2022-12-31T00:23:45.114Z,98105.06
2022-12-31T00:26:16.816Z,98110.56
2022-12-31T00:28:44.209Z,98108.22
2022-12-31T00:31:14.229Z,98105.47
2022-12-31T00:33:41.409Z,98106.66
2022-12-31T00:36:11.313Z,98125.88
2022-12-31T00:38:39.407Z,98118.03
2022-12-31T00:41:06.695Z,98120.41
2022-12-31T00:43:34.415Z,98120.81
2022-12-31T00:46:01.879Z,98121.97
2022-12-31T00:48:28.514Z,98129.81
2022-12-31T00:50:55.911Z,98119.59
2022-12-31T00:56:02.991Z,98138.06
2022-12-31T01:01:23.650Z,98147.03
2022-12-31T01:03:52.412Z,98161.53
2022-12-31T01:06:19.796Z,98155.25
2022-12-31T01:08:49.300Z,98165.84
2022-12-31T01:11:19.661Z,98156.84
2022-12-31T01:13:51.362Z,98155.66
2022-12-31T01:16:20.822Z,98164.28
2022-12-31T01:18:47.758Z,98171.75
2022-12-31T01:21:15.710Z,98170.97
2022-12-31T01:23:42.804Z,98177.59
2022-12-31T01:26:12.426Z,98182.69
2022-12-31T01:28:39.386Z,98188.16
2022-12-31T01:31:08.732Z,98193.28
2022-12-31T01:33:35.994Z,98207.38
2022-12-31T01:36:07.667Z,98205.03
2022-12-31T01:38:34.992Z,98205.41
2022-12-31T01:41:01.716Z,98204.63
2022-12-31T01:43:45.635Z,98214.00
2022-12-31T01:46:17.476Z,98218.34
2022-12-31T01:48:49.148Z,98218.72
2022-12-31T01:51:16.018Z,98218.34
2022-12-31T01:53:43.419Z,98219.13
2022-12-31T01:56:10.815Z,98207.75
2022-12-31T01:58:43.266Z,98214.00
2022-12-31T02:01:13.751Z,98208.09
2022-12-31T02:03:40.607Z,98215.91
2022-12-31T02:06:20.562Z,98220.25
2022-12-31T02:08:47.765Z,98224.91
2022-12-31T02:11:33.152Z,98217.88
2022-12-31T02:14:04.499Z,98223.38
2022-12-31T02:16:43.131Z,98219.44
2022-12-31T02:19:18.677Z,98230.41
2022-12-31T02:21:57.021Z,98224.13
2022-12-31T02:24:50.634Z,98235.84
2022-12-31T02:27:26.310Z,98228.44
2022-12-31T02:30:07.838Z,98234.69
2022-12-31T02:32:46.689Z,98235.88
2022-12-31T02:35:27.247Z,98236.25
2022-12-31T02:38:01.800Z,98231.19
2022-12-31T02:40:29.017Z,98232.78
2022-12-31T02:42:55.940Z,98232.44
2022-12-31T02:45:29.411Z,98223.81
2022-12-31T02:48:22.025Z,98227.34
2022-12-31T02:51:00.568Z,98224.22
2022-12-31T02:53:32.921Z,98212.47
2022-12-31T02:56:21.321Z,98210.53
2022-12-31T02:59:35.960Z,98208.19
2022-12-31T03:02:15.718Z,98207.78
2022-12-31T03:04:51.188Z,98212.13
2022-12-31T03:07:24.664Z,98206.22
2022-12-31T03:09:51.753Z,98209.38
2022-12-31T03:12:39.999Z,98207.03
2022-12-31T03:15:20.067Z,98205.84
2022-12-31T03:18:05.834Z,98208.59
2022-12-31T03:23:29.480Z,98209.78
2022-12-31T03:25:57.149Z,98213.28
2022-12-31T03:28:26.678Z,98224.25
2022-12-31T03:30:56.566Z,98216.44
2022-12-31T03:33:23.728Z,98222.69
2022-12-31T03:35:51.062Z,98227.41
2022-12-31T03:38:18.956Z,98234.84
2022-12-31T03:40:48.824Z,98236.44
2022-12-31T03:43:15.480Z,98247.81
2022-12-31T03:45:42.096Z,98252.13
2022-12-31T03:48:09.954Z,98260.38
2022-12-31T03:50:37.324Z,98254.09
2022-12-31T03:53:04.342Z,98249.78
2022-12-31T03:58:06.023Z,98263.91
2022-12-31T04:00:32.675Z,98260.38
2022-12-31T04:02:59.334Z,98254.88
2022-12-31T04:05:26.070Z,98250.16
2022-12-31T04:07:52.900Z,98247.03
2022-12-31T04:10:20.115Z,98253.31
2022-12-31T04:12:46.718Z,98262.72
2022-12-31T04:15:19.443Z,98261.16
2022-12-31T04:17:46.796Z,98272.94
2022-12-31T04:20:13.749Z,98279.19
2022-12-31T04:22:40.502Z,98261.94
2022-12-31T04:25:11.754Z,98265.88
2022-12-31T04:27:43.947Z,98259.16
2022-12-31T04:30:12.740Z,98278.00
2022-12-31T04:32:39.629Z,98258.78
2022-12-31T04:37:40.476Z,98265.06
2022-12-31T04:40:09.489Z,98268.22
2022-12-31T04:42:37.107Z,98270.53
2022-12-31T04:45:04.839Z,98268.22
2022-12-31T04:47:31.481Z,98271.31
2022-12-31T04:49:58.067Z,98280.78
2022-12-31T04:52:25.574Z,98285.06
2022-12-31T04:54:52.181Z,98281.94
2022-12-31T04:57:18.863Z,98286.25
2022-12-31T04:59:45.552Z,98280.78
2022-12-31T05:02:12.227Z,98283.13
2022-12-31T05:04:38.941Z,98292.16
2022-12-31T05:07:05.626Z,98290.16
2022-12-31T05:09:32.249Z,98290.97
2022-12-31T05:11:58.871Z,98285.47
2022-12-31T05:14:25.617Z,98287.03
2022-12-31T05:16:52.599Z,98286.66
2022-12-31T05:19:19.322Z,98294.13
2022-12-31T05:22:06.160Z,98294.88
2022-12-31T05:24:32.852Z,98296.47
2022-12-31T05:26:59.488Z,98304.31
2022-12-31T05:29:26.229Z,98293.72
2022-12-31T05:31:52.850Z,98299.59
2022-12-31T05:36:52.659Z,98294.88
2022-12-31T05:39:19.187Z,98309.81
2022-12-31T05:41:45.837Z,98306.25
2022-12-31T05:44:12.553Z,98307.47
2022-12-31T05:46:39.141Z,98309.78
2022-12-31T05:51:38.956Z,98308.25
2022-12-31T05:54:05.805Z,98298.81
2022-12-31T05:56:32.501Z,98317.69
2022-12-31T05:58:59.052Z,98301.97
2022-12-31T06:01:25.650Z,98312.16
2022-12-31T06:03:52.342Z,98311.38
2022-12-31T06:06:18.975Z,98312.94
2022-12-31T06:08:49.778Z,98310.59
2022-12-31T06:11:16.400Z,98316.47
2022-12-31T06:13:44.332Z,98320.81
2022-12-31T06:16:11.402Z,98323.13
2022-12-31T06:18:38.041Z,98336.09
2022-12-31T06:21:05.064Z,98345.13
2022-12-31T06:23:31.839Z,98339.63
2022-12-31T06:26:02.756Z,98327.06
2022-12-31T06:28:29.368Z,98342.78
2022-12-31T06:31:00.423Z,98334.91
2022-12-31T06:33:27.167Z,98350.59
2022-12-31T06:35:58.125Z,98360.03
2022-12-31T06:38:25.833Z,98362.78
2022-12-31T06:40:52.631Z,98370.22
2022-12-31T06:43:19.306Z,98363.97
2022-12-31T06:45:46.260Z,98374.56
2022-12-31T06:48:13.290Z,98391.81
2022-12-31T06:50:40.506Z,98388.28
2022-12-31T06:53:07.961Z,98378.50
2022-12-31T06:55:34.804Z,98365.94
2022-12-31T06:58:01.625Z,98371.44
2022-12-31T07:00:28.628Z,98358.09
2022-12-31T07:05:53.418Z,98360.84
2022-12-31T07:08:41.444Z,98365.97
2022-12-31T07:11:26.870Z,98375.75
2022-12-31T07:14:07.139Z,98369.88
2022-12-31T07:16:53.506Z,98368.69
2022-12-31T07:19:29.171Z,98360.81
2022-12-31T07:21:59.102Z,98373.00
2022-12-31T07:24:26.556Z,98376.13
2022-12-31T07:27:06.692Z,98378.13
2022-12-31T07:30:06.726Z,98386.75
2022-12-31T07:33:03.106Z,98391.44
2022-12-31T07:35:57.542Z,98365.56
2022-12-31T07:38:34.359Z,98374.97
2022-12-31T07:43:55.769Z,98380.06
2022-12-31T07:46:47.150Z,98390.25
2022-12-31T07:49:14.822Z,98389.09
2022-12-31T07:51:42.831Z,98393.81
2022-12-31T07:54:13.871Z,98392.59
2022-12-31T07:56:41.964Z,98396.94
2022-12-31T07:59:39.291Z,98392.59
2022-12-31T08:02:37.083Z,98407.91
2022-12-31T08:05:18.294Z,98417.34
2022-12-31T08:08:05.526Z,98422.44
2022-12-31T08:10:43.953Z,98422.03
2022-12-31T08:13:12.587Z,98429.50
2022-12-31T08:15:40.517Z,98436.97
2022-12-31T08:18:08.240Z,98429.91
2022-12-31T08:20:47.822Z,98424.00
2022-12-31T08:23:18.500Z,98425.91
2022-12-31T08:25:55.440Z,98434.97
2022-12-31T08:28:38.259Z,98431.81
2022-12-31T08:31:12.993Z,98443.19
2022-12-31T08:34:08.810Z,98425.09
2022-12-31T08:36:53.641Z,98413.28
2022-12-31T08:39:32.095Z,98412.88
2022-12-31T08:42:04.036Z,98427.44
2022-12-31T08:44:52.231Z,98423.13
2022-12-31T08:47:38.582Z,98444.38
2022-12-31T08:52:40.323Z,98448.66
2022-12-31T08:55:07.392Z,98459.69
2022-12-31T08:57:37.695Z,98454.56
2022-12-31T09:03:09.500Z,98473.03
2022-12-31T09:06:13.031Z,98470.72
2022-12-31T09:08:55.979Z,98476.22
2022-12-31T09:11:26.431Z,98473.84
2022-12-31T09:14:23.305Z,98465.97
2022-12-31T09:17:03.493Z,98467.94
2022-12-31T09:19:30.098Z,98467.94
2022-12-31T09:21:56.946Z,98468.28
2022-12-31T09:24:23.756Z,98464.31
2022-12-31T09:27:04.127Z,98473.69
2022-12-31T09:29:42.646Z,98459.50
2022-12-31T09:32:12.214Z,98458.59
2022-12-31T09:35:00.120Z,98464.03
2022-12-31T09:37:55.222Z,98466.34
2022-12-31T09:40:43.475Z,98465.06
2022-12-31T09:43:15.663Z,98464.66
2022-12-31T09:46:00.808Z,98473.34
2022-12-31T09:48:58.032Z,98474.13
2022-12-31T09:51:32.679Z,98473.34
2022-12-31T09:57:15.377Z,98476.19
2022-12-31T10:00:09.756Z,98476.94
2022-12-31T10:02:54.551Z,98471.06
2022-12-31T10:05:42.928Z,98468.59
2022-12-31T10:14:04.469Z,98459.38
2022-12-31T10:16:49.029Z,98466.41
2022-12-31T10:19:56.878Z,98458.88
2022-12-31T10:22:58.987Z,98462.00
2022-12-31T10:25:56.525Z,98463.56
2022-12-31T10:28:35.309Z,98464.38
2022-12-31T10:31:37.229Z,98460.44
2022-12-31T10:34:45.199Z,98448.59
2022-12-31T10:37:17.811Z,98458.81
2022-12-31T10:40:33.953Z,98465.88
2022-12-31T10:43:28.217Z,98458.81
2022-12-31T10:46:23.022Z,98460.00
2022-12-31T10:49:17.777Z,98445.00
2022-12-31T10:51:59.221Z,98448.88
2022-12-31T10:54:44.458Z,98446.88
2022-12-31T10:57:29.812Z,98442.53
2022-12-31T11:00:14.076Z,98444.09
2022-12-31T11:02:40.840Z,98452.03
2022-12-31T11:05:29.263Z,98441.38
2022-12-31T11:08:33.137Z,98434.97
2022-12-31T11:11:17.259Z,98435.03
2022-12-31T11:13:43.806Z,98444.13
2022-12-31T11:16:38.301Z,98436.59
2022-12-31T11:19:19.344Z,98438.06
2022-12-31T11:21:53.679Z,98419.88
2022-12-31T11:24:32.738Z,98428.16
2022-12-31T11:27:14.366Z,98422.66
2022-12-31T11:30:04.742Z,98419.00
2022-12-31T11:32:34.066Z,98430.75
2022-12-31T11:35:12.289Z,98420.44
2022-12-31T11:37:54.479Z,98413.81
2022-12-31T11:40:44.622Z,98414.13
2022-12-31T11:43:23.795Z,98412.47
2022-12-31T11:46:07.235Z,98409.69
2022-12-31T11:49:11.236Z,98407.66
2022-12-31T11:51:50.143Z,98415.50
2022-12-31T11:54:42.085Z,98402.09
2022-12-31T11:57:39.362Z,98390.22
2022-12-31T12:00:24.325Z,98404.84
2022-12-31T12:02:54.017Z,98397.72
2022-12-31T12:05:23.295Z,98390.53
2022-12-31T12:07:50.906Z,98398.41
2022-12-31T12:10:42.298Z,98392.13
2022-12-31T12:13:17.575Z,98384.16
2022-12-31T12:15:51.631Z,98381.47
2022-12-31T12:18:36.210Z,98382.22
2022-12-31T12:21:06.909Z,98380.47
2022-12-31T12:23:33.631Z,98381.63
2022-12-31T12:26:00.587Z,98387.94
2022-12-31T12:28:30.431Z,98380.38
2022-12-31T12:31:05.161Z,98382.69
2022-12-31T12:33:43.029Z,98373.97
2022-12-31T12:36:12.099Z,98375.06
2022-12-31T12:38:39.421Z,98376.25
2022-12-31T12:41:11.721Z,98365.66
2022-12-31T12:43:39.040Z,98368.56
2022-12-31T12:46:28.048Z,98369.75
2022-12-31T12:48:56.977Z,98365.81
2022-12-31T12:51:37.800Z,98374.94
2022-12-31T12:54:16.076Z,98367.78
2022-12-31T12:56:53.795Z,98367.28
2022-12-31T12:59:43.595Z,98364.47
2022-12-31T13:02:57.579Z,98364.06
2022-12-31T13:05:46.083Z,98368.44
2022-12-31T13:08:52.730Z,98361.34
2022-12-31T13:11:44.812Z,98358.91
2022-12-31T13:14:22.509Z,98352.53
2022-12-31T13:17:26.601Z,98358.22
2022-12-31T13:20:17.523Z,98352.81
2022-12-31T13:22:52.373Z,98362.66
2022-12-31T13:25:30.732Z,98361.81
2022-12-31T13:28:03.926Z,98345.69
2022-12-31T13:30:36.553Z,98349.69
2022-12-31T13:33:16.321Z,98350.09
2022-12-31T13:35:49.001Z,98345.84
2022-12-31T13:38:18.549Z,98341.09
2022-12-31T13:40:52.601Z,98339.50
2022-12-31T13:43:34.737Z,98334.13
2022-12-31T13:46:34.682Z,98341.25
2022-12-31T13:49:14.720Z,98327.88
2022-12-31T13:51:45.277Z,98335.09
2022-12-31T13:54:35.683Z,98335.03
2022-12-31T13:57:10.967Z,98335.88
2022-12-31T13:59:48.568Z,98332.66
2022-12-31T14:02:47.059Z,98337.34
2022-12-31T14:05:41.930Z,98333.44
2022-12-31T14:08:08.711Z,98325.66
2022-12-31T14:10:48.976Z,98327.25
2022-12-31T14:13:34.935Z,98322.94
2022-12-31T14:16:05.222Z,98321.34
2022-12-31T14:19:03.509Z,98324.94
2022-12-31T14:21:51.299Z,98323.78
2022-12-31T14:24:39.405Z,98326.16
2022-12-31T14:27:11.203Z,98329.00
2022-12-31T14:29:50.144Z,98328.28
2022-12-31T14:33:01.690Z,98329.94
2022-12-31T14:35:52.368Z,98335.78
2022-12-31T14:38:36.400Z,98344.09
2022-12-31T14:41:24.627Z,98343.31
2022-12-31T14:44:06.159Z,98345.72
2022-12-31T14:47:09.888Z,98343.38
2022-12-31T14:50:10.427Z,98351.41
2022-12-31T14:52:59.070Z,98357.31
2022-12-31T14:55:31.692Z,98345.13
2022-12-31T15:01:16.111Z,98353.38
2022-12-31T15:03:46.038Z,98354.56
2022-12-31T15:06:19.169Z,98346.06
2022-12-31T15:09:08.237Z,98350.88
2022-12-31T15:11:46.994Z,98348.59
2022-12-31T15:14:37.638Z,98348.28
2022-12-31T15:17:31.999Z,98360.97
2022-12-31T15:20:28.774Z,98357.44
2022-12-31T15:22:55.821Z,98355.88
2022-12-31T15:25:40.001Z,98352.00
2022-12-31T15:28:23.075Z,98351.28
2022-12-31T15:30:50.747Z,98363.94
2022-12-31T15:33:33.298Z,98361.50
2022-12-31T15:36:20.803Z,98368.56
2022-12-31T15:38:48.485Z,98369.41
2022-12-31T15:41:26.613Z,98358.38
2022-12-31T15:44:16.125Z,98354.84
2022-12-31T15:46:43.955Z,98365.91
2022-12-31T15:49:18.825Z,98370.22
2022-12-31T15:51:51.557Z,98367.38
2022-12-31T15:54:27.746Z,98359.53
2022-12-31T15:59:27.983Z,98368.63
2022-12-31T16:01:58.020Z,98369.06
2022-12-31T16:04:27.766Z,98374.97
2022-12-31T16:06:54.794Z,98377.78
2022-12-31T16:09:34.332Z,98379.00
2022-12-31T16:12:02.282Z,98378.66
2022-12-31T16:14:36.416Z,98381.84
2022-12-31T16:17:04.103Z,98379.09
2022-12-31T16:19:41.140Z,98381.06
2022-12-31T16:22:26.955Z,98394.91
2022-12-31T16:25:28.929Z,98394.13
2022-12-31T16:27:42.316Z,98397.72
2022-12-31T16:30:21.104Z,98396.97
2022-12-31T16:32:49.662Z,98396.59
2022-12-31T16:35:44.603Z,98395.44
2022-12-31T16:38:19.196Z,98391.44
2022-12-31T16:41:00.973Z,98393.81
2022-12-31T16:43:29.213Z,98400.81
2022-12-31T16:45:58.805Z,98391.22
2022-12-31T16:48:25.595Z,98389.25
2022-12-31T16:50:54.571Z,98394.72
2022-12-31T16:53:26.661Z,98397.13
2022-12-31T16:56:08.742Z,98393.66
2022-12-31T16:58:40.398Z,98392.63
2022-12-31T17:01:21.638Z,98391.44
2022-12-31T17:03:53.235Z,98393.41
2022-12-31T17:06:22.037Z,98397.41
2022-12-31T17:08:59.522Z,98387.63
2022-12-31T17:11:43.656Z,98399.84
2022-12-31T17:14:10.226Z,98396.31
2022-12-31T17:17:03.300Z,98394.34
2022-12-31T17:19:33.317Z,98398.66
2022-12-31T17:22:00.242Z,98398.28
2022-12-31T17:24:27.256Z,98407.78
2022-12-31T17:26:54.024Z,98414.09
2022-12-31T17:29:26.298Z,98412.91
2022-12-31T17:32:25.394Z,98409.78
2022-12-31T17:34:52.415Z,98414.53
2022-12-31T17:37:28.335Z,98422.00
2022-12-31T17:40:32.317Z,98417.31
2022-12-31T17:42:48.801Z,98420.84
2022-12-31T17:45:21.346Z,98416.13
2022-12-31T17:47:51.229Z,98426.34
2022-12-31T17:50:19.648Z,98421.25
2022-12-31T17:52:47.172Z,98430.69
2022-12-31T17:55:13.891Z,98435.41
2022-12-31T17:57:52.477Z,98430.72
2022-12-31T18:00:22.400Z,98435.03
2022-12-31T18:02:49.065Z,98448.00
2022-12-31T18:05:18.824Z,98436.22
2022-12-31T18:07:45.474Z,98434.66
2022-12-31T18:10:13.275Z,98435.00
2022-12-31T18:15:19.383Z,98438.16
2022-12-31T18:17:46.363Z,98431.91
2022-12-31T18:20:13.449Z,98434.66
2022-12-31T18:22:42.721Z,98432.28
2022-12-31T18:25:16.393Z,98437.41
2022-12-31T18:27:43.038Z,98429.91
2022-12-31T18:32:45.673Z,98442.88
2022-12-31T18:35:40.399Z,98433.88
2022-12-31T18:38:02.756Z,98436.22
2022-12-31T18:40:29.554Z,98441.31
2022-12-31T18:43:01.115Z,98448.78
2022-12-31T18:45:31.225Z,98440.94
2022-12-31T18:47:57.847Z,98444.47
2022-12-31T18:50:24.566Z,98446.44
2022-12-31T18:52:51.120Z,98436.63
2022-12-31T18:57:56.075Z,98448.00
2022-12-31T19:00:22.770Z,98436.63
2022-12-31T19:02:49.462Z,98453.50
2022-12-31T19:05:23.679Z,98450.25
2022-12-31T19:10:26.843Z,98447.75
2022-12-31T19:12:54.010Z,98450.44
2022-12-31T19:15:23.823Z,98457.84
2022-12-31T19:17:51.762Z,98459.16
2022-12-31T19:20:18.658Z,98460.06
2022-12-31T19:22:45.356Z,98462.03
2022-12-31T19:27:52.932Z,98471.53
2022-12-31T19:30:25.615Z,98474.28
2022-12-31T19:32:52.375Z,98472.31
2022-12-31T19:35:20.010Z,98468.81
2022-12-31T19:40:29.105Z,98478.66
2022-12-31T19:42:56.915Z,98475.13
2022-12-31T19:45:26.431Z,98471.19
2022-12-31T19:47:54.483Z,98478.66
2022-12-31T19:50:23.965Z,98473.91
2022-12-31T19:52:53.010Z,98481.41
2022-12-31T19:55:22.471Z,98488.06
2022-12-31T19:57:49.623Z,98486.50
2022-12-31T20:00:18.079Z,98484.91
2022-12-31T20:02:47.703Z,98488.06
2022-12-31T20:05:16.285Z,98482.56
2022-12-31T20:07:43.111Z,98475.47
2022-12-31T20:10:11.040Z,98477.47
2022-12-31T20:12:43.960Z,98471.94
2022-12-31T20:15:11.245Z,98483.34
2022-12-31T20:17:38.008Z,98488.44
2022-12-31T20:20:06.022Z,98485.72
2022-12-31T20:22:33.109Z,98488.47
2022-12-31T20:24:59.713Z,98483.34
2022-12-31T20:27:26.338Z,98488.06
2022-12-31T20:29:52.918Z,98485.69
2022-12-31T20:32:19.559Z,98486.09
2022-12-31T20:34:46.116Z,98488.44
2022-12-31T20:37:12.886Z,98486.47
2022-12-31T20:39:39.579Z,98487.66
2022-12-31T20:42:06.409Z,98488.78
2022-12-31T20:44:33.033Z,98494.25
2022-12-31T20:46:59.749Z,98484.84
2022-12-31T20:49:52.175Z,98482.50
2022-12-31T20:52:13.413Z,98486.44
2022-12-31T20:54:39.959Z,98487.63
2022-12-31T20:57:08.628Z,98491.91
2022-12-31T20:59:35.342Z,98483.28
2022-12-31T21:04:48.994Z,98485.63
2022-12-31T21:07:15.625Z,98497.75
2022-12-31T21:09:42.172Z,98491.13
2022-12-31T21:12:29.532Z,98494.22
2022-12-31T21:14:56.488Z,98493.84
2022-12-31T21:17:23.337Z,98493.44
2022-12-31T21:19:50.308Z,98490.69
2022-12-31T21:22:17.147Z,98497.34
2022-12-31T21:24:43.960Z,98506.75
2022-12-31T21:27:10.663Z,98499.69
2022-12-31T21:29:55.755Z,98498.88
2022-12-31T21:32:24.251Z,98499.69
2022-12-31T21:35:23.177Z,98494.16
2022-12-31T21:37:58.275Z,98503.97
2022-12-31T21:40:25.615Z,98508.28
2022-12-31T21:42:52.333Z,98509.09
2022-12-31T21:45:18.913Z,98509.03
2022-12-31T21:48:04.392Z,98517.19
2022-12-31T21:50:31.484Z,98513.53
2022-12-31T21:52:58.219Z,98524.38
2022-12-31T21:55:44.232Z,98529.09
2022-12-31T21:58:27.622Z,98527.47
2022-12-31T22:01:15.495Z,98525.13
2022-12-31T22:03:42.668Z,98529.84
2022-12-31T22:08:58.892Z,98546.34
2022-12-31T22:11:27.512Z,98544.38
2022-12-31T22:13:54.965Z,98548.66
2022-12-31T22:16:22.853Z,98544.34
2022-12-31T22:21:29.658Z,98545.13
2022-12-31T22:23:58.834Z,98552.56
2022-12-31T22:26:28.067Z,98551.03
2022-12-31T22:28:59.318Z,98556.47
2022-12-31T22:31:30.136Z,98550.97
2022-12-31T22:33:58.163Z,98552.56
2022-12-31T22:36:27.081Z,98557.28
2022-12-31T22:38:58.419Z,98554.16
2022-12-31T22:41:26.494Z,98553.38
2022-12-31T22:44:02.615Z,98554.56
2022-12-31T22:46:30.257Z,98558.13
2022-12-31T22:48:58.865Z,98555.91
2022-12-31T22:51:30.504Z,98560.78
2022-12-31T22:54:16.078Z,98559.19
2022-12-31T22:56:42.661Z,98579.06
2022-12-31T22:59:09.721Z,98576.25
2022-12-31T23:01:36.983Z,98569.25
2022-12-31T23:04:04.502Z,98572.84
2022-12-31T23:06:31.152Z,98576.78
2022-12-31T23:09:19.192Z,98574.25
2022-12-31T23:11:45.868Z,98579.63
2022-12-31T23:14:36.029Z,98579.06
2022-12-31T23:17:30.253Z,98575.13
2022-12-31T23:20:18.029Z,98566.81
2022-12-31T23:23:03.338Z,98579.38
2022-12-31T23:25:38.296Z,98577.09
2022-12-31T23:28:05.990Z,98574.34
2022-12-31T23:30:33.128Z,98573.19
2022-12-31T23:32:59.828Z,98573.94
2022-12-31T23:35:26.510Z,98575.47
2022-12-31T23:37:53.131Z,98576.69
2022-12-31T23:40:21.730Z,98577.44
2022-12-31T23:42:51.988Z,98576.66
2022-12-31T23:45:18.797Z,98579.41
2022-12-31T23:47:45.347Z,98586.94
2022-12-31T23:50:11.937Z,98576.38
2022-12-31T23:52:38.479Z,98585.81
2022-12-31T23:55:05.397Z,98580.31
2022-12-31T23:57:32.183Z,98583.13
2022-12-31T23:59:58.922Z,98579.22
